createdAt,value
2018-02-17T00:00:32.918Z,0.76
2018-02-17T00:01:32.891Z,0.76
2018-02-17T00:02:32.888Z,0.8
2018-02-17T00:03:32.869Z,0.76
2018-02-17T00:04:32.870Z,0.73
2018-02-17T00:05:32.842Z,0.76
2018-02-17T00:06:32.809Z,0.8
2018-02-17T00:07:32.810Z,0.83
2018-02-17T00:08:32.528Z,0.8
2018-02-17T00:09:32.762Z,0.83
2018-02-17T00:10:32.748Z,0.8
2018-02-17T00:11:32.731Z,0.78
2018-02-17T00:12:32.715Z,0.69
2018-02-17T00:13:32.703Z,0.65
2018-02-17T00:14:32.686Z,0.66
2018-02-17T00:15:32.669Z,0.65
2018-02-17T00:16:32.656Z,0.68
2018-02-17T00:17:32.379Z,0.66
2018-02-17T00:18:32.365Z,0.6
2018-02-17T00:19:32.603Z,0.68
2018-02-17T00:20:32.333Z,0.62
2018-02-17T00:21:32.318Z,0.61
2018-02-17T00:22:32.557Z,0.61
2018-02-17T00:23:32.795Z,0.73
2018-02-17T00:24:32.530Z,0.58
2018-02-17T00:25:32.253Z,0.6
2018-02-17T00:26:32.492Z,0.65
2018-02-17T00:27:32.480Z,0.6
2018-02-17T00:28:32.469Z,0.58
2018-02-17T00:29:32.190Z,0.58
2018-02-17T00:30:32.439Z,0.66
2018-02-17T00:31:32.161Z,0.65
2018-02-17T00:32:32.400Z,0.62
2018-02-17T00:33:32.386Z,0.57
2018-02-17T00:34:31.854Z,0.58
2018-02-17T00:35:32.098Z,0.58
2018-02-17T00:36:32.338Z,0.55
2018-02-17T00:37:32.322Z,0.61
2018-02-17T00:38:32.304Z,0.65
2018-02-17T00:39:32.286Z,0.55
2018-02-17T00:40:32.274Z,0.5
2018-02-17T00:41:32.254Z,0.6
2018-02-17T00:42:32.253Z,0.57
2018-02-17T00:43:31.969Z,0.58
2018-02-17T00:44:32.203Z,0.61
2018-02-17T00:45:32.193Z,0.53
2018-02-17T00:46:32.176Z,0.65
2018-02-17T00:47:32.161Z,0.53
2018-02-17T00:48:31.890Z,0.57
2018-02-17T00:49:32.130Z,0.58
2018-02-17T00:50:32.123Z,0.57
2018-02-17T00:51:31.845Z,0.6
2018-02-17T00:52:32.083Z,0.61
2018-02-17T00:53:32.060Z,0.65
2018-02-17T00:54:32.302Z,0.53
2018-02-17T00:55:32.028Z,0.68
2018-02-17T00:56:32.016Z,0.55
2018-02-17T00:57:31.997Z,0.65
2018-02-17T00:58:31.470Z,0.5
2018-02-17T00:59:31.966Z,0.47
2018-02-17T01:00:31.948Z,0.62
2018-02-17T01:01:31.941Z,0.5
2018-02-17T01:02:31.911Z,0.49
2018-02-17T01:03:31.902Z,0.41
2018-02-17T01:04:31.891Z,0.62
2018-02-17T01:05:31.870Z,0.5
2018-02-17T01:06:31.853Z,0.41
2018-02-17T01:07:31.849Z,0.44
2018-02-17T01:08:31.312Z,0.61
2018-02-17T01:09:31.805Z,0.6
2018-02-17T01:10:31.787Z,0.49
2018-02-17T01:11:31.785Z,0.47
2018-02-17T01:12:31.764Z,0.46
2018-02-17T01:13:31.787Z,0.61
2018-02-17T01:14:31.722Z,0.41
2018-02-17T01:15:31.715Z,0.49
2018-02-17T01:16:31.694Z,0.44
2018-02-17T01:17:31.678Z,0.44
2018-02-17T01:18:31.663Z,0.57
2018-02-17T01:19:31.640Z,0.44
2018-02-17T01:20:31.635Z,0.57
2018-02-17T01:21:31.623Z,0.55
2018-02-17T01:22:31.592Z,0.49
2018-02-17T01:23:31.070Z,0.46
2018-02-17T01:24:31.562Z,0.55
2018-02-17T01:25:31.546Z,0.51
2018-02-17T01:26:31.290Z,0.41
2018-02-17T01:27:31.512Z,0.42
2018-02-17T01:28:31.497Z,0.49
2018-02-17T01:29:31.226Z,0.5
2018-02-17T01:30:31.468Z,0.47
2018-02-17T01:31:31.448Z,0.46
2018-02-17T01:32:31.425Z,0.51
2018-02-17T01:33:31.413Z,0.5
2018-02-17T01:34:31.397Z,0.5
2018-02-17T01:35:31.379Z,0.46
2018-02-17T01:36:31.372Z,0.55
2018-02-17T01:37:31.349Z,0.51
2018-02-17T01:38:31.337Z,0.5
2018-02-17T01:39:31.313Z,0.5
2018-02-17T01:40:31.043Z,0.55
2018-02-17T01:41:31.282Z,0.58
2018-02-17T01:42:31.267Z,0.51
2018-02-17T01:43:31.258Z,0.57
2018-02-17T01:44:31.236Z,0.58
2018-02-17T01:45:31.218Z,0.53
2018-02-17T01:46:30.942Z,0.53
2018-02-17T01:47:30.924Z,0.58
2018-02-17T01:48:31.172Z,0.58
2018-02-17T01:49:31.177Z,0.55
2018-02-17T01:50:31.137Z,0.58
2018-02-17T01:51:31.120Z,0.58
2018-02-17T01:52:31.109Z,0.6
2018-02-17T01:53:31.083Z,0.65
2018-02-17T01:54:31.069Z,0.61
2018-02-17T01:55:31.076Z,0.68
2018-02-17T01:56:30.778Z,0.75
2018-02-17T01:57:31.021Z,0.83
2018-02-17T01:58:31.004Z,0.76
2018-02-17T01:59:30.992Z,0.79
2018-02-17T02:00:30.979Z,0.86
2018-02-17T02:01:30.959Z,0.93
2018-02-17T02:02:30.939Z,0.9
2018-02-17T02:03:30.924Z,0.98
2018-02-17T02:04:30.900Z,1.04
2018-02-17T02:05:30.902Z,0.98
2018-02-17T02:06:30.876Z,1.11
2018-02-17T02:07:30.861Z,1.16
2018-02-17T02:08:30.853Z,1.26
2018-02-17T02:09:30.573Z,1.37
2018-02-17T02:10:30.807Z,1.36
2018-02-17T02:11:30.791Z,1.45
2018-02-17T02:12:30.522Z,1.48
2018-02-17T02:13:30.769Z,1.47
2018-02-17T02:14:30.744Z,1.59
2018-02-17T02:15:30.726Z,1.59
2018-02-17T02:16:30.708Z,1.63
2018-02-17T02:17:30.690Z,1.76
2018-02-17T02:18:30.681Z,1.72
2018-02-17T02:19:30.658Z,1.8
2018-02-17T02:20:30.644Z,1.84
2018-02-17T02:21:30.374Z,1.8
2018-02-17T02:22:30.620Z,1.9
2018-02-17T02:23:30.594Z,1.91
2018-02-17T02:24:30.595Z,1.93
2018-02-17T02:25:30.563Z,1.93
2018-02-17T02:26:30.554Z,2
2018-02-17T02:27:30.538Z,2.06
2018-02-17T02:28:30.523Z,2.06
2018-02-17T02:29:30.245Z,2.1
2018-02-17T02:30:30.486Z,2.12
2018-02-17T02:31:30.221Z,2.12
2018-02-17T02:32:30.463Z,2.12
2018-02-17T02:33:30.447Z,2.2
2018-02-17T02:34:30.426Z,2.27
2018-02-17T02:35:30.414Z,2.25
2018-02-17T02:36:30.399Z,2.23
2018-02-17T02:37:30.387Z,2.36
2018-02-17T02:38:30.378Z,2.35
2018-02-17T02:39:30.359Z,2.35
2018-02-17T02:40:30.331Z,2.35
2018-02-17T02:41:30.073Z,2.42
2018-02-17T02:42:30.314Z,2.36
2018-02-17T02:43:30.290Z,2.36
2018-02-17T02:44:30.275Z,2.38
2018-02-17T02:45:29.745Z,2.39
2018-02-17T02:46:30.242Z,2.43
2018-02-17T02:47:30.223Z,2.39
2018-02-17T02:48:30.222Z,2.39
2018-02-17T02:49:29.937Z,2.54
2018-02-17T02:50:30.178Z,2.54
2018-02-17T02:51:30.165Z,2.6
2018-02-17T02:52:29.896Z,2.54
2018-02-17T02:53:30.136Z,2.54
2018-02-17T02:54:29.867Z,2.61
2018-02-17T02:55:30.098Z,2.74
2018-02-17T02:56:30.085Z,2.77
2018-02-17T02:57:30.077Z,2.82
2018-02-17T02:58:30.068Z,2.84
2018-02-17T02:59:30.297Z,2.84
2018-02-17T03:00:30.025Z,2.85
2018-02-17T03:01:30.012Z,2.93
2018-02-17T03:02:30.005Z,2.97
2018-02-17T03:03:29.984Z,2.96
2018-02-17T03:04:29.977Z,2.92
2018-02-17T03:05:29.947Z,2.99
2018-02-17T03:06:29.941Z,2.99
2018-02-17T03:07:29.915Z,3.03
2018-02-17T03:08:29.905Z,3.11
2018-02-17T03:09:29.646Z,3.15
2018-02-17T03:10:29.870Z,3.08
2018-02-17T03:11:29.860Z,3.21
2018-02-17T03:12:29.837Z,3.23
2018-02-17T03:13:29.830Z,3.26
2018-02-17T03:14:29.553Z,3.18
2018-02-17T03:15:29.798Z,3.31
2018-02-17T03:16:29.784Z,3.2
2018-02-17T03:17:29.766Z,3.36
2018-02-17T03:18:29.494Z,3.24
2018-02-17T03:19:29.735Z,3.35
2018-02-17T03:20:29.464Z,3.31
2018-02-17T03:21:29.715Z,3.28
2018-02-17T03:22:29.697Z,3.29
2018-02-17T03:23:29.422Z,3.21
2018-02-17T03:24:29.657Z,3.32
2018-02-17T03:25:29.650Z,3.32
2018-02-17T03:26:29.636Z,3.4
2018-02-17T03:27:29.616Z,3.29
2018-02-17T03:28:29.348Z,3.32
2018-02-17T03:29:29.593Z,3.47
2018-02-17T03:30:29.827Z,3.36
2018-02-17T03:31:29.565Z,3.31
2018-02-17T03:32:29.290Z,3.33
2018-02-17T03:33:29.527Z,3.43
2018-02-17T03:34:29.514Z,3.43
2018-02-17T03:35:29.502Z,3.35
2018-02-17T03:36:29.486Z,3.36
2018-02-17T03:37:29.212Z,3.43
2018-02-17T03:38:29.456Z,3.36
2018-02-17T03:39:29.440Z,3.36
2018-02-17T03:40:29.423Z,3.43
2018-02-17T03:41:29.409Z,3.4
2018-02-17T03:42:29.397Z,3.52
2018-02-17T03:43:29.379Z,3.5
2018-02-17T03:44:29.414Z,3.58
2018-02-17T03:45:29.353Z,3.51
2018-02-17T03:46:29.340Z,3.5
2018-02-17T03:47:29.319Z,3.52
2018-02-17T03:48:29.306Z,3.57
2018-02-17T03:49:29.039Z,3.54
2018-02-17T03:50:29.278Z,3.61
2018-02-17T03:51:29.266Z,3.61
2018-02-17T03:52:29.250Z,3.61
2018-02-17T03:53:28.975Z,3.66
2018-02-17T03:54:29.217Z,3.66
2018-02-17T03:55:29.205Z,3.7
2018-02-17T03:56:29.191Z,3.61
2018-02-17T03:57:29.175Z,3.68
2018-02-17T03:58:29.157Z,3.68
2018-02-17T03:59:29.153Z,3.62
2018-02-17T04:00:29.129Z,3.65
2018-02-17T04:01:29.369Z,3.65
2018-02-17T04:02:29.103Z,3.7
2018-02-17T04:03:29.095Z,3.68
2018-02-17T04:04:29.075Z,3.69
2018-02-17T04:05:29.060Z,3.69
2018-02-17T04:06:28.784Z,3.66
2018-02-17T04:07:29.025Z,3.75
2018-02-17T04:08:29.011Z,3.7
2018-02-17T04:09:29.000Z,3.79
2018-02-17T04:10:28.982Z,3.73
2018-02-17T04:11:28.963Z,3.75
2018-02-17T04:12:28.952Z,3.78
2018-02-17T04:13:28.683Z,3.76
2018-02-17T04:14:28.922Z,3.75
2018-02-17T04:15:28.915Z,3.8
2018-02-17T04:16:28.896Z,3.8
2018-02-17T04:17:28.881Z,3.87
2018-02-17T04:18:28.868Z,3.8
2018-02-17T04:19:28.849Z,3.88
2018-02-17T04:20:28.835Z,3.91
2018-02-17T04:21:28.308Z,3.88
2018-02-17T04:22:28.807Z,3.87
2018-02-17T04:23:28.540Z,4
2018-02-17T04:24:28.773Z,3.94
2018-02-17T04:25:28.507Z,3.91
2018-02-17T04:26:28.490Z,3.94
2018-02-17T04:27:28.730Z,3.91
2018-02-17T04:28:28.465Z,3.93
2018-02-17T04:29:28.703Z,3.97
2018-02-17T04:30:28.691Z,3.91
2018-02-17T04:31:28.676Z,3.88
2018-02-17T04:32:28.402Z,3.97
2018-02-17T04:33:28.649Z,3.94
2018-02-17T04:34:28.627Z,3.91
2018-02-17T04:35:28.613Z,3.93
2018-02-17T04:36:28.600Z,4
2018-02-17T04:37:28.583Z,3.97
2018-02-17T04:38:28.315Z,4.05
2018-02-17T04:39:28.562Z,4
2018-02-17T04:40:28.543Z,4.04
2018-02-17T04:41:28.528Z,4.04
2018-02-17T04:42:28.516Z,4.04
2018-02-17T04:43:28.500Z,4.06
2018-02-17T04:44:28.492Z,4.08
2018-02-17T04:45:28.470Z,4.08
2018-02-17T04:46:28.457Z,4
2018-02-17T04:47:28.198Z,4.05
2018-02-17T04:48:28.170Z,4.08
2018-02-17T04:49:28.412Z,4.11
2018-02-17T04:50:28.407Z,4.06
2018-02-17T04:51:28.383Z,4.14
2018-02-17T04:52:28.368Z,4.14
2018-02-17T04:53:28.355Z,4.05
2018-02-17T04:54:28.339Z,3.96
2018-02-17T04:55:28.325Z,4.02
2018-02-17T04:56:28.309Z,4.04
2018-02-17T04:57:27.786Z,4.12
2018-02-17T04:58:28.025Z,4.12
2018-02-17T04:59:28.013Z,4.14
2018-02-17T05:00:28.260Z,4.06
2018-02-17T05:01:28.237Z,4.15
2018-02-17T05:02:28.226Z,4.11
2018-02-17T05:03:28.209Z,4.08
2018-02-17T05:04:27.937Z,4.12
2018-02-17T05:05:28.179Z,4.18
2018-02-17T05:06:28.168Z,4.2
2018-02-17T05:07:28.146Z,4.12
2018-02-17T05:08:28.139Z,4.12
2018-02-17T05:09:27.865Z,4.15
2018-02-17T05:10:28.107Z,4.2
2018-02-17T05:11:27.834Z,4.16
2018-02-17T05:12:28.074Z,4.23
2018-02-17T05:13:28.063Z,4.12
2018-02-17T05:14:27.794Z,4.23
2018-02-17T05:15:27.777Z,4.22
2018-02-17T05:16:28.021Z,4.14
2018-02-17T05:17:28.004Z,4.22
2018-02-17T05:18:27.989Z,4.16
2018-02-17T05:19:27.718Z,4.15
2018-02-17T05:20:27.964Z,4.18
2018-02-17T05:21:27.958Z,4.24
2018-02-17T05:22:27.941Z,4.27
2018-02-17T05:23:27.917Z,4.29
2018-02-17T05:24:27.392Z,4.24
2018-02-17T05:25:27.887Z,4.24
2018-02-17T05:26:27.877Z,4.27
2018-02-17T05:27:27.609Z,4.32
2018-02-17T05:28:27.846Z,4.27
2018-02-17T05:29:27.578Z,4.29
2018-02-17T05:30:27.820Z,4.29
2018-02-17T05:31:27.799Z,4.33
2018-02-17T05:32:27.790Z,4.3
2018-02-17T05:33:27.521Z,4.3
2018-02-17T05:34:27.542Z,4.34
2018-02-17T05:35:27.744Z,4.34
2018-02-17T05:36:27.477Z,4.34
2018-02-17T05:37:27.461Z,4.4
2018-02-17T05:38:27.703Z,4.32
2018-02-17T05:39:27.690Z,4.42
2018-02-17T05:40:27.672Z,4.42
2018-02-17T05:41:27.660Z,4.44
2018-02-17T05:42:27.648Z,4.4
2018-02-17T05:43:27.376Z,4.41
2018-02-17T05:44:27.618Z,4.37
2018-02-17T05:45:27.599Z,4.37
2018-02-17T05:46:27.589Z,4.42
2018-02-17T05:47:27.573Z,4.41
2018-02-17T05:48:27.562Z,4.34
2018-02-17T05:49:27.293Z,4.41
2018-02-17T05:50:27.532Z,4.44
2018-02-17T05:51:27.521Z,4.41
2018-02-17T05:52:27.502Z,4.4
2018-02-17T05:53:27.490Z,4.44
2018-02-17T05:54:27.469Z,4.4
2018-02-17T05:55:27.457Z,4.36
2018-02-17T05:56:27.443Z,4.4
2018-02-17T05:57:27.443Z,4.36
2018-02-17T05:58:27.421Z,4.37
2018-02-17T05:59:27.150Z,4.41
2018-02-17T06:00:27.133Z,4.36
2018-02-17T06:01:27.378Z,4.47
2018-02-17T06:02:27.361Z,4.37
2018-02-17T06:03:27.346Z,4.29
2018-02-17T06:04:27.077Z,4.29
2018-02-17T06:05:27.320Z,4.36
2018-02-17T06:06:27.296Z,4.33
2018-02-17T06:07:27.291Z,4.33
2018-02-17T06:08:27.271Z,4.37
2018-02-17T06:09:26.751Z,4.41
2018-02-17T06:10:27.248Z,4.36
2018-02-17T06:11:27.239Z,4.4
2018-02-17T06:12:27.220Z,4.32
2018-02-17T06:13:27.203Z,4.37
2018-02-17T06:14:26.937Z,4.29
2018-02-17T06:15:27.175Z,4.34
2018-02-17T06:16:27.166Z,4.27
2018-02-17T06:17:27.146Z,4.34
2018-02-17T06:18:27.137Z,4.34
2018-02-17T06:19:26.863Z,4.4
2018-02-17T06:20:27.114Z,4.4
2018-02-17T06:21:26.832Z,4.27
2018-02-17T06:22:27.077Z,4.24
2018-02-17T06:23:27.063Z,4.26
2018-02-17T06:24:26.793Z,4.24
2018-02-17T06:25:27.035Z,4.22
2018-02-17T06:26:27.021Z,4.22
2018-02-17T06:27:27.004Z,4.22
2018-02-17T06:28:26.993Z,4.06
2018-02-17T06:29:26.722Z,4.12
2018-02-17T06:30:26.969Z,4.06
2018-02-17T06:31:26.949Z,4.09
2018-02-17T06:32:26.676Z,4.14
2018-02-17T06:33:26.920Z,4.11
2018-02-17T06:34:26.920Z,4.11
2018-02-17T06:35:26.633Z,4.06
2018-02-17T06:36:26.881Z,4.14
2018-02-17T06:37:27.112Z,4.11
2018-02-17T06:38:26.334Z,4.16
2018-02-17T06:39:26.580Z,4.14
2018-02-17T06:40:26.826Z,4.18
2018-02-17T06:41:26.804Z,4.24
2018-02-17T06:42:26.791Z,4.26
2018-02-17T06:43:26.781Z,4.24
2018-02-17T06:44:26.511Z,4.27
2018-02-17T06:45:26.746Z,4.23
2018-02-17T06:46:26.224Z,4.27
2018-02-17T06:47:26.716Z,4.32
2018-02-17T06:48:26.703Z,4.36
2018-02-17T06:49:26.436Z,4.4
2018-02-17T06:50:26.679Z,4.36
2018-02-17T06:51:26.671Z,4.41
2018-02-17T06:52:26.646Z,4.34
2018-02-17T06:53:26.628Z,4.36
2018-02-17T06:54:26.362Z,4.37
2018-02-17T06:55:26.611Z,4.34
2018-02-17T06:56:26.594Z,4.36
2018-02-17T06:57:26.579Z,4.33
2018-02-17T06:58:26.558Z,4.36
2018-02-17T06:59:26.294Z,4.34
2018-02-17T07:00:26.529Z,4.37
2018-02-17T07:01:26.265Z,4.42
2018-02-17T07:02:26.505Z,4.4
2018-02-17T07:03:26.497Z,4.48
2018-02-17T07:04:26.223Z,4.5
2018-02-17T07:05:26.209Z,4.54
2018-02-17T07:06:26.458Z,4.55
2018-02-17T07:07:26.438Z,4.66
2018-02-17T07:08:26.420Z,4.62
2018-02-17T07:09:26.406Z,4.67
2018-02-17T07:10:26.392Z,4.59
2018-02-17T07:11:26.386Z,4.69
2018-02-17T07:12:26.367Z,4.67
2018-02-17T07:13:26.354Z,4.67
2018-02-17T07:14:26.333Z,4.7
2018-02-17T07:15:26.325Z,4.82
2018-02-17T07:16:26.310Z,4.84
2018-02-17T07:17:26.041Z,4.84
2018-02-17T07:18:26.284Z,4.91
2018-02-17T07:19:26.267Z,4.88
2018-02-17T07:20:26.083Z,4.96
2018-02-17T07:21:26.243Z,5.03
2018-02-17T07:22:26.227Z,4.97
2018-02-17T07:23:26.216Z,5.03
2018-02-17T07:24:25.945Z,5.12
2018-02-17T07:25:25.944Z,5.25
2018-02-17T07:26:26.177Z,5.28
2018-02-17T07:27:26.206Z,5.25
2018-02-17T07:28:25.890Z,5.3
2018-02-17T07:29:25.873Z,5.27
2018-02-17T07:30:26.130Z,5.35
2018-02-17T07:31:26.107Z,5.42
2018-02-17T07:32:26.100Z,5.39
2018-02-17T07:33:25.824Z,5.54
2018-02-17T07:34:26.064Z,5.56
2018-02-17T07:35:26.047Z,5.56
2018-02-17T07:36:26.040Z,5.58
2018-02-17T07:37:26.038Z,5.61
2018-02-17T07:38:26.012Z,5.68
2018-02-17T07:39:25.998Z,5.76
2018-02-17T07:40:26.100Z,5.64
2018-02-17T07:41:25.966Z,5.75
2018-02-17T07:42:25.959Z,5.81
2018-02-17T07:43:25.950Z,5.74
2018-02-17T07:44:25.934Z,5.75
2018-02-17T07:45:25.915Z,5.83
2018-02-17T07:46:25.653Z,5.82
2018-02-17T07:47:25.900Z,5.85
2018-02-17T07:48:25.886Z,5.9
2018-02-17T07:49:25.865Z,5.89
2018-02-17T07:50:25.849Z,5.93
2018-02-17T07:51:25.842Z,5.99
2018-02-17T07:52:25.572Z,6.06
2018-02-17T07:53:25.558Z,6.06
2018-02-17T07:54:25.824Z,6.09
2018-02-17T07:55:25.789Z,6.11
2018-02-17T07:56:25.778Z,6.08
2018-02-17T07:57:25.547Z,6.06
2018-02-17T07:58:25.846Z,6.09
2018-02-17T07:59:25.742Z,6.11
2018-02-17T08:00:25.473Z,6.11
2018-02-17T08:01:25.729Z,6.14
2018-02-17T08:02:25.715Z,6.17
2018-02-17T08:03:25.430Z,6.22
2018-02-17T08:04:25.681Z,6.25
2018-02-17T08:05:25.664Z,6.21
2018-02-17T08:06:25.649Z,6.38
2018-02-17T08:07:25.642Z,6.37
2018-02-17T08:08:25.632Z,6.36
2018-02-17T08:09:25.356Z,6.44
2018-02-17T08:10:25.596Z,6.54
2018-02-17T08:11:25.579Z,6.51
2018-02-17T08:12:25.580Z,6.48
2018-02-17T08:13:25.565Z,6.58
2018-02-17T08:14:25.547Z,6.52
2018-02-17T08:15:25.351Z,6.64
2018-02-17T08:16:25.525Z,6.61
2018-02-17T08:17:25.512Z,6.58
2018-02-17T08:18:25.504Z,6.52
2018-02-17T08:19:25.485Z,6.64
2018-02-17T08:20:25.482Z,6.66
2018-02-17T08:21:25.462Z,6.58
2018-02-17T08:22:25.452Z,6.58
2018-02-17T08:23:25.446Z,6.71
2018-02-17T08:24:25.431Z,6.69
2018-02-17T08:25:25.419Z,6.66
2018-02-17T08:26:25.147Z,6.67
2018-02-17T08:27:25.136Z,6.7
2018-02-17T08:28:25.372Z,6.77
2018-02-17T08:29:25.107Z,6.67
2018-02-17T08:30:25.354Z,6.69
2018-02-17T08:31:25.347Z,6.7
2018-02-17T08:32:25.340Z,6.67
2018-02-17T08:33:25.328Z,6.67
2018-02-17T08:34:25.306Z,6.67
2018-02-17T08:35:25.292Z,6.61
2018-02-17T08:36:25.288Z,6.69
2018-02-17T08:37:25.011Z,6.73
2018-02-17T08:38:25.264Z,6.79
2018-02-17T08:39:25.242Z,6.81
2018-02-17T08:40:25.233Z,6.8
2018-02-17T08:41:25.213Z,6.87
2018-02-17T08:42:25.454Z,6.8
2018-02-17T08:43:25.219Z,6.8
2018-02-17T08:44:25.184Z,6.79
2018-02-17T08:45:24.912Z,6.74
2018-02-17T08:46:25.156Z,6.74
2018-02-17T08:47:25.446Z,6.76
2018-02-17T08:48:25.129Z,6.69
2018-02-17T08:49:25.136Z,6.67
2018-02-17T08:50:25.110Z,6.73
2018-02-17T08:51:25.096Z,6.74
2018-02-17T08:52:25.091Z,6.76
2018-02-17T08:53:25.067Z,6.79
2018-02-17T08:54:25.059Z,6.81
2018-02-17T08:55:25.044Z,6.87
2018-02-17T08:56:25.033Z,6.81
2018-02-17T08:57:25.025Z,6.85
2018-02-17T08:58:24.758Z,7.02
2018-02-17T08:59:25.008Z,6.99
2018-02-17T09:00:24.993Z,6.99
2018-02-17T09:01:24.971Z,7.02
2018-02-17T09:02:24.967Z,7.09
2018-02-17T09:03:24.952Z,7.07
2018-02-17T09:04:24.942Z,7.12
2018-02-17T09:05:24.927Z,7.09
2018-02-17T09:06:24.655Z,7.09
2018-02-17T09:07:24.910Z,7.07
2018-02-17T09:08:24.895Z,7.02
2018-02-17T09:09:24.877Z,7.09
2018-02-17T09:10:24.871Z,7.15
2018-02-17T09:11:24.600Z,7.21
2018-02-17T09:12:24.847Z,7.17
2018-02-17T09:13:25.086Z,7.28
2018-02-17T09:14:24.817Z,7.34
2018-02-17T09:15:24.806Z,7.3
2018-02-17T09:16:24.802Z,7.32
2018-02-17T09:17:24.799Z,7.4
2018-02-17T09:18:24.772Z,7.43
2018-02-17T09:19:24.763Z,7.53
2018-02-17T09:20:24.489Z,7.46
2018-02-17T09:21:24.744Z,7.61
2018-02-17T09:22:24.725Z,7.57
2018-02-17T09:23:24.718Z,7.68
2018-02-17T09:24:24.700Z,7.74
2018-02-17T09:25:24.695Z,7.85
2018-02-17T09:26:24.677Z,7.79
2018-02-17T09:27:24.673Z,7.86
2018-02-17T09:28:24.651Z,7.89
2018-02-17T09:29:24.651Z,8.04
2018-02-17T09:30:24.397Z,8.01
2018-02-17T09:31:24.363Z,8.08
2018-02-17T09:32:24.612Z,8.3
2018-02-17T09:33:24.597Z,8.38
2018-02-17T09:34:24.328Z,8.43
2018-02-17T09:35:24.578Z,8.52
2018-02-17T09:36:24.309Z,8.48
2018-02-17T09:37:24.300Z,8.58
2018-02-17T09:38:24.546Z,8.65
2018-02-17T09:39:24.538Z,8.76
2018-02-17T09:40:24.522Z,8.77
2018-02-17T09:41:24.513Z,8.95
2018-02-17T09:42:24.498Z,8.99
2018-02-17T09:43:24.234Z,9.02
2018-02-17T09:44:24.731Z,9.05
2018-02-17T09:45:24.476Z,9.18
2018-02-17T09:46:24.206Z,9.13
2018-02-17T09:47:24.444Z,9.23
2018-02-17T09:48:24.440Z,9.1
2018-02-17T09:49:24.421Z,9.29
2018-02-17T09:50:24.432Z,9.33
2018-02-17T09:51:24.416Z,9.32
2018-02-17T09:52:24.140Z,9.36
2018-02-17T09:53:24.390Z,9.4
2018-02-17T09:54:24.377Z,9.46
2018-02-17T09:55:24.367Z,9.46
2018-02-17T09:56:24.357Z,9.5
2018-02-17T09:57:24.092Z,9.48
2018-02-17T09:58:24.336Z,9.57
2018-02-17T09:59:24.079Z,9.58
2018-02-17T10:00:24.321Z,9.69
2018-02-17T10:01:24.309Z,9.69
2018-02-17T10:02:24.368Z,9.65
2018-02-17T10:03:24.282Z,9.76
2018-02-17T10:04:24.028Z,9.78
2018-02-17T10:05:24.271Z,9.87
2018-02-17T10:06:24.265Z,9.84
2018-02-17T10:07:24.247Z,9.86
2018-02-17T10:08:24.246Z,9.9
2018-02-17T10:09:24.242Z,10.01
2018-02-17T10:10:24.214Z,10.02
2018-02-17T10:11:24.006Z,10.02
2018-02-17T10:12:23.938Z,9.91
2018-02-17T10:13:23.934Z,9.9
2018-02-17T10:14:24.184Z,9.87
2018-02-17T10:15:24.179Z,9.91
2018-02-17T10:16:24.180Z,10.04
2018-02-17T10:17:24.282Z,9.93
2018-02-17T10:18:24.144Z,9.99
2018-02-17T10:19:24.174Z,10.01
2018-02-17T10:20:24.123Z,10.08
2018-02-17T10:21:24.115Z,10.17
2018-02-17T10:22:23.848Z,10.22
2018-02-17T10:23:24.094Z,10.2
2018-02-17T10:24:24.150Z,10.32
2018-02-17T10:25:24.073Z,10.34
2018-02-17T10:26:24.063Z,10.36
2018-02-17T10:27:24.082Z,10.4
2018-02-17T10:28:24.057Z,10.44
2018-02-17T10:29:24.037Z,10.45
2018-02-17T10:30:24.036Z,10.4
2018-02-17T10:31:24.027Z,10.44
2018-02-17T10:32:24.008Z,10.51
2018-02-17T10:33:24.005Z,10.53
2018-02-17T10:34:23.991Z,10.55
2018-02-17T10:35:24.026Z,10.59
2018-02-17T10:36:23.977Z,10.61
2018-02-17T10:37:23.966Z,10.66
2018-02-17T10:38:23.954Z,10.67
2018-02-17T10:39:23.941Z,10.73
2018-02-17T10:40:23.946Z,10.76
2018-02-17T10:41:23.976Z,10.71
2018-02-17T10:42:23.664Z,10.76
2018-02-17T10:43:23.905Z,10.76
2018-02-17T10:44:23.895Z,10.74
2018-02-17T10:45:23.631Z,10.68
2018-02-17T10:46:23.884Z,10.76
2018-02-17T10:47:23.874Z,10.76
2018-02-17T10:48:23.867Z,10.7
2018-02-17T10:49:23.852Z,10.78
2018-02-17T10:50:23.844Z,10.79
2018-02-17T10:51:23.580Z,10.88
2018-02-17T10:52:23.830Z,10.88
2018-02-17T10:53:23.565Z,10.86
2018-02-17T10:54:23.810Z,10.89
2018-02-17T10:55:23.549Z,10.85
2018-02-17T10:56:23.801Z,11
2018-02-17T10:57:23.790Z,10.89
2018-02-17T10:58:23.813Z,11.06
2018-02-17T10:59:23.767Z,11.09
2018-02-17T11:00:23.505Z,11.18
2018-02-17T11:01:23.745Z,11.27
2018-02-17T11:02:23.750Z,11.27
2018-02-17T11:03:23.728Z,11.28
2018-02-17T11:04:23.736Z,11.29
2018-02-17T11:05:23.721Z,11.35
2018-02-17T11:06:23.760Z,11.27
2018-02-17T11:07:23.692Z,11.29
2018-02-17T11:08:23.696Z,11.19
2018-02-17T11:09:23.677Z,11.25
2018-02-17T11:10:23.412Z,11.25
2018-02-17T11:11:23.668Z,11.32
2018-02-17T11:12:23.471Z,11.25
2018-02-17T11:13:23.644Z,11.29
2018-02-17T11:14:23.638Z,11.29
2018-02-17T11:15:23.633Z,11.25
2018-02-17T11:16:23.618Z,11.25
2018-02-17T11:17:23.626Z,11.29
2018-02-17T11:18:23.863Z,11.25
2018-02-17T11:19:23.340Z,11.29
2018-02-17T11:20:23.327Z,11.28
2018-02-17T11:21:23.583Z,11.24
2018-02-17T11:22:23.311Z,11.28
2018-02-17T11:23:23.301Z,11.27
2018-02-17T11:24:23.566Z,11.29
2018-02-17T11:25:23.542Z,11.28
2018-02-17T11:26:23.282Z,11.24
2018-02-17T11:27:23.048Z,11.4
2018-02-17T11:28:23.518Z,11.37
2018-02-17T11:29:23.254Z,11.42
2018-02-17T11:30:23.496Z,11.39
2018-02-17T11:31:23.491Z,11.4
2018-02-17T11:32:23.480Z,11.39
2018-02-17T11:33:23.225Z,11.49
2018-02-17T11:34:23.462Z,11.43
2018-02-17T11:35:23.461Z,11.52
2018-02-17T11:36:23.464Z,11.51
2018-02-17T11:37:23.195Z,11.55
2018-02-17T11:38:23.436Z,11.58
2018-02-17T11:39:23.425Z,11.46
2018-02-17T11:40:23.156Z,11.7
2018-02-17T11:41:23.401Z,11.75
2018-02-17T11:42:23.400Z,11.72
2018-02-17T11:43:23.133Z,11.64
2018-02-17T11:44:23.379Z,11.75
2018-02-17T11:45:23.371Z,11.76
2018-02-17T11:46:23.116Z,11.82
2018-02-17T11:47:23.360Z,11.86
2018-02-17T11:48:23.358Z,11.78
2018-02-17T11:49:23.336Z,11.83
2018-02-17T11:50:23.072Z,11.78
2018-02-17T11:51:23.321Z,11.8
2018-02-17T11:52:23.316Z,11.9
2018-02-17T11:53:23.309Z,11.79
2018-02-17T11:54:23.303Z,11.83
2018-02-17T11:55:23.301Z,11.88
2018-02-17T11:56:23.285Z,11.76
2018-02-17T11:57:23.024Z,11.78
2018-02-17T11:58:23.290Z,11.75
2018-02-17T11:59:23.258Z,11.79
2018-02-17T12:00:22.993Z,11.8
2018-02-17T12:01:22.983Z,11.8
2018-02-17T12:02:23.235Z,11.79
2018-02-17T12:03:23.241Z,11.83
2018-02-17T12:04:22.701Z,11.9
2018-02-17T12:05:22.957Z,11.86
2018-02-17T12:06:22.944Z,11.88
2018-02-17T12:07:22.935Z,11.83
2018-02-17T12:08:22.671Z,11.95
2018-02-17T12:09:22.926Z,11.88
2018-02-17T12:10:23.178Z,11.86
2018-02-17T12:11:23.163Z,11.82
2018-02-17T12:12:22.922Z,11.79
2018-02-17T12:13:23.144Z,11.88
2018-02-17T12:14:22.874Z,11.85
2018-02-17T12:15:22.919Z,11.75
2018-02-17T12:16:23.124Z,11.82
2018-02-17T12:17:22.855Z,11.76
2018-02-17T12:18:22.590Z,11.8
2018-02-17T12:19:22.852Z,11.8
2018-02-17T12:20:22.821Z,11.83
2018-02-17T12:21:23.083Z,11.85
2018-02-17T12:22:23.070Z,11.83
2018-02-17T12:23:22.812Z,11.9
2018-02-17T12:24:22.796Z,11.9
2018-02-17T12:25:22.799Z,11.91
2018-02-17T12:26:22.780Z,11.9
2018-02-17T12:27:23.027Z,11.86
2018-02-17T12:28:22.511Z,11.94
2018-02-17T12:29:22.756Z,11.8
2018-02-17T12:30:22.748Z,11.79
2018-02-17T12:31:22.740Z,11.55
2018-02-17T12:32:22.990Z,11.4
2018-02-17T12:33:22.981Z,11.18
2018-02-17T12:34:23.054Z,11.04
2018-02-17T12:35:22.715Z,10.88
2018-02-17T12:36:22.703Z,10.81
2018-02-17T12:37:22.944Z,10.74
2018-02-17T12:38:22.938Z,10.71
2018-02-17T12:39:22.939Z,10.67
2018-02-17T12:40:22.932Z,10.45
2018-02-17T12:41:22.914Z,10.36
2018-02-17T12:42:22.647Z,10.3
2018-02-17T12:43:22.903Z,10.23
2018-02-17T12:44:22.900Z,10.33
2018-02-17T12:45:22.880Z,10.25
2018-02-17T12:46:22.871Z,10.18
2018-02-17T12:47:22.863Z,10.07
2018-02-17T12:48:22.614Z,9.97
2018-02-17T12:49:22.842Z,9.83
2018-02-17T12:50:22.840Z,9.78
2018-02-17T12:51:23.076Z,9.81
2018-02-17T12:52:22.569Z,9.83
2018-02-17T12:53:22.907Z,9.79
2018-02-17T12:54:22.802Z,9.78
2018-02-17T12:55:22.799Z,9.84
2018-02-17T12:56:22.786Z,9.84
2018-02-17T12:57:22.784Z,9.75
2018-02-17T12:58:22.769Z,9.76
2018-02-17T12:59:22.754Z,9.84
2018-02-17T13:00:22.746Z,9.96
2018-02-17T13:01:22.740Z,9.9
2018-02-17T13:02:22.726Z,10.08
2018-02-17T13:03:22.724Z,10.2
2018-02-17T13:04:22.722Z,10.15
2018-02-17T13:05:22.707Z,10.26
2018-02-17T13:06:22.700Z,10.18
2018-02-17T13:07:22.692Z,10.27
2018-02-17T13:08:22.678Z,10.17
2018-02-17T13:09:22.668Z,10.08
2018-02-17T13:10:22.659Z,10.11
2018-02-17T13:11:22.647Z,10.12
2018-02-17T13:12:22.637Z,9.94
2018-02-17T13:13:22.654Z,9.83
2018-02-17T13:14:22.643Z,9.87
2018-02-17T13:15:22.350Z,9.89
2018-02-17T13:16:22.609Z,9.93